sensor_id;sensor_type;location;lat;lon;timestamp;pressure;altitude;pressure_sealevel;temperature;humidity
17950;BME280;9100;48.700;9.316;2022-09-01T00:00:44;97876.3;;;16.78;100
17950;BME280;9100;48.700;9.316;2022-09-01T00:01:44;97882.6;;;16.75;100
17950;BME280;9100;48.700;9.316;2022-09-01T00:02:37;97881.3;;;16.73;100
17950;BME280;9100;48.700;9.316;2022-09-01T00:02:44;97885.40000000001;;;16.74;100
17950;BME280;9100;48.700;9.316;2022-09-01T00:03:44;97873.29999999999;;;16.74;100
17950;BME280;9100;48.700;9.316;2022-09-01T00:04:44;97881.3;;;16.73;100
17950;BME280;9100;48.700;9.316;2022-09-01T00:05:44;97883;;;16.72;100
17950;BME280;9100;48.700;9.316;2022-09-01T00:06:43;97877.09999999999;;;16.72;100
17950;BME280;9100;48.700;9.316;2022-09-01T00:07:37;97887.40000000001;;;16.72;100
17950;BME280;9100;48.700;9.316;2022-09-01T00:07:44;97886.6;;;16.71;100
17950;BME280;9100;48.700;9.316;2022-09-01T00:08:44;97889.8;;;16.73;100
17950;BME280;9100;48.700;9.316;2022-09-01T00:09:44;97885.79999999999;;;16.71;100
17950;BME280;9100;48.700;9.316;2022-09-01T00:10:44;97885.79999999999;;;16.71;100
17950;BME280;9100;48.700;9.316;2022-09-01T00:11:45;97882.7;;;16.69;100
17950;BME280;9100;48.700;9.316;2022-09-01T00:12:37;97881.1;;;16.68;100
17950;BME280;9100;48.700;9.316;2022-09-01T00:12:44;97881.9;;;16.68;100
17950;BME280;9100;48.700;9.316;2022-09-01T00:13:44;97882.7;;;16.69;100
17950;BME280;9100;48.700;9.316;2022-09-01T00:14:43;97883.5;;;16.69;100
17950;BME280;9100;48.700;9.316;2022-09-01T00:15:43;97880.9;;;16.69;100
17950;BME280;9100;48.700;9.316;2022-09-01T00:16:44;97882.7;;;16.69;100
17950;BME280;9100;48.700;9.316;2022-09-01T00:17:37;97880.1;;;16.69;100
17950;BME280;9100;48.700;9.316;2022-09-01T00:17:43;97873.1;;;16.69;100
17950;BME280;9100;48.700;9.316;2022-09-01T00:18:44;97879.1;;;16.7;100
17950;BME280;9100;48.700;9.316;2022-09-01T00:19:43;97878.3;;;16.69;100
17950;BME280;9100;48.700;9.316;2022-09-01T00:20:43;97876.5;;;16.7;100
17950;BME280;9100;48.700;9.316;2022-09-01T00:21:44;97880.3;;;16.67;100
17950;BME280;9100;48.700;9.316;2022-09-01T00:22:37;97884.1;;;16.65;100
17950;BME280;9100;48.700;9.316;2022-09-01T00:22:43;97880.7;;;16.64;100
17950;BME280;9100;48.700;9.316;2022-09-01T00:23:44;97885.1;;;16.64;100
17950;BME280;9100;48.700;9.316;2022-09-01T00:24:44;97883.5;;;16.63;100
17950;BME280;9100;48.700;9.316;2022-09-01T00:25:44;97876.8;;;16.62;100
17950;BME280;9100;48.700;9.316;2022-09-01T00:26:44;97879.6;;;16.6;100
17950;BME280;9100;48.700;9.316;2022-09-01T00:27:37;97875.40000000001;;;16.59;100
17950;BME280;9100;48.700;9.316;2022-09-01T00:27:44;97882.4;;;16.59;100
17950;BME280;9100;48.700;9.316;2022-09-01T00:28:44;97879;;;16.58;100
17950;BME280;9100;48.700;9.316;2022-09-01T00:29:44;97873;;;16.58;100
17950;BME280;9100;48.700;9.316;2022-09-01T00:30:44;97868.1;;;16.56;100
17950;BME280;9100;48.700;9.316;2022-09-01T00:31:44;97870;;;16.54;100
17950;BME280;9100;48.700;9.316;2022-09-01T00:32:37;97876.4;;;16.52;100
17950;BME280;9100;48.700;9.316;2022-09-01T00:32:43;97863.3;;;16.53;100
17950;BME280;9100;48.700;9.316;2022-09-01T00:33:44;97873.90000000001;;;16.52;100
17950;BME280;9100;48.700;9.316;2022-09-01T00:34:44;97874.8;;;16.5;100
17950;BME280;9100;48.700;9.316;2022-09-01T00:35:43;97863.4;;;16.46;100
17950;BME280;9100;48.700;9.316;2022-09-01T00:36:43;97876.3;;;16.46;100
17950;BME280;9100;48.700;9.316;2022-09-01T00:37:37;97865.4;;;16.44;100
17950;BME280;9100;48.700;9.316;2022-09-01T00:37:44;97863.8;;;16.43;100
17950;BME280;9100;48.700;9.316;2022-09-01T00:38:44;97865.4;;;16.44;100
17950;BME280;9100;48.700;9.316;2022-09-01T00:39:44;97875.9;;;16.43;100
17950;BME280;9100;48.700;9.316;2022-09-01T00:40:44;97865;;;16.41;100
17950;BME280;9100;48.700;9.316;2022-09-01T00:41:44;97867.8;;;16.39;100
17950;BME280;9100;48.700;9.316;2022-09-01T00:42:37;97872.2;;;16.39;100
17950;BME280;9100;48.700;9.316;2022-09-01T00:42:44;97870.6;;;16.38;100
17950;BME280;9100;48.700;9.316;2022-09-01T00:43:45;97869;;;16.37;100
17950;BME280;9100;48.700;9.316;2022-09-01T00:44:44;97868.4;;;16.35;100
17950;BME280;9100;48.700;9.316;2022-09-01T00:45:44;97866;;;16.33;100
17950;BME280;9100;48.700;9.316;2022-09-01T00:46:44;97865.3;;;16.33;100
17950;BME280;9100;48.700;9.316;2022-09-01T00:47:37;97865.5;;;16.31;100
17950;BME280;9100;48.700;9.316;2022-09-01T00:47:44;97866.2;;;16.32;100
17950;BME280;9100;48.700;9.316;2022-09-01T00:48:44;97860.29999999999;;;16.31;100
17950;BME280;9100;48.700;9.316;2022-09-01T00:49:44;97863.9;;;16.3;100
17950;BME280;9100;48.700;9.316;2022-09-01T00:50:43;97865.09999999999;;;16.28;100
17950;BME280;9100;48.700;9.316;2022-09-01T00:51:44;97861.90000000001;;;16.26;100
17950;BME280;9100;48.700;9.316;2022-09-01T00:52:38;97854.6;;;16.23;100
17950;BME280;9100;48.700;9.316;2022-09-01T00:52:45;97865.5;;;16.25;100
17950;BME280;9100;48.700;9.316;2022-09-01T00:53:44;97859.6;;;16.24;100
17950;BME280;9100;48.700;9.316;2022-09-01T00:54:44;97857.2;;;16.23;100
17950;BME280;9100;48.700;9.316;2022-09-01T00:55:44;97860.79999999999;;;16.22;100
17950;BME280;9100;48.700;9.316;2022-09-01T00:56:43;97857.4;;;16.21;100
17950;BME280;9100;48.700;9.316;2022-09-01T00:57:37;97855;;;16.2;100
17950;BME280;9100;48.700;9.316;2022-09-01T00:57:44;97853.2;;;16.2;100
17950;BME280;9100;48.700;9.316;2022-09-01T00:58:44;97855.8;;;16.2;100
17950;BME280;9100;48.700;9.316;2022-09-01T00:59:45;97858.4;;;16.2;100
17950;BME280;9100;48.700;9.316;2022-09-01T01:00:44;97861.2;;;16.19;100
17950;BME280;9100;48.700;9.316;2022-09-01T01:01:43;97806.8;;;15.89;100
17950;BME280;9100;48.700;9.316;2022-09-01T01:02:37;97859.40000000001;;;16.19;100
17950;BME280;9100;48.700;9.316;2022-09-01T01:02:44;97863.5;;;16.2;100
17950;BME280;9100;48.700;9.316;2022-09-01T01:03:44;97863.5;;;16.2;100
17950;BME280;9100;48.700;9.316;2022-09-01T01:04:44;97856.8;;;16.19;100
17950;BME280;9100;48.700;9.316;2022-09-01T01:05:45;97852.20000000001;;;16.21;100
17950;BME280;9100;48.700;9.316;2022-09-01T01:06:45;97850.9;;;16.19;100
17950;BME280;9100;48.700;9.316;2022-09-01T01:07:37;97850.9;;;16.19;100
17950;BME280;9100;48.700;9.316;2022-09-01T01:07:43;97864.5;;;16.19;100
17950;BME280;9100;48.700;9.316;2022-09-01T01:08:44;97847.29999999999;;;16.2;100
17950;BME280;9100;48.700;9.316;2022-09-01T01:09:43;97863;;;16.18;100
17950;BME280;9100;48.700;9.316;2022-09-01T01:10:43;97856.2;;;16.17;100
17950;BME280;9100;48.700;9.316;2022-09-01T01:11:43;97859;;;16.16;100
17950;BME280;9100;48.700;9.316;2022-09-01T01:12:37;97859.2;;;16.14;100
17950;BME280;9100;48.700;9.316;2022-09-01T01:12:44;97861;;;16.14;100
17950;BME280;9100;48.700;9.316;2022-09-01T01:13:46;97867;;;16.14;100
17950;BME280;9100;48.700;9.316;2022-09-01T01:14:44;97857.6;;;16.13;100
17950;BME280;9100;48.700;9.316;2022-09-01T01:15:44;97856.5;;;16.09;100
17950;BME280;9100;48.700;9.316;2022-09-01T01:16:44;97854.9;;;16.08;100
17950;BME280;9100;48.700;9.316;2022-09-01T01:17:37;97866.4;;;16.06;100
17950;BME280;9100;48.700;9.316;2022-09-01T01:17:43;97861.3;;;16.06;100
17950;BME280;9100;48.700;9.316;2022-09-01T01:18:44;97857.9;;;16.05;100
17950;BME280;9100;48.700;9.316;2022-09-01T01:19:44;97864.8;;;16.05;100
17950;BME280;9100;48.700;9.316;2022-09-01T01:20:44;97860.7;;;16.04;100
17950;BME280;9100;48.700;9.316;2022-09-01T01:21:43;97862.5;;;16.03;100
17950;BME280;9100;48.700;9.316;2022-09-01T01:22:38;97856.5;;;16.03;100
17950;BME280;9100;48.700;9.316;2022-09-01T01:22:45;97801.8;;;15.69;100
17950;BME280;9100;48.700;9.316;2022-09-01T01:23:44;97860.7;;;16.04;100
17950;BME280;9100;48.700;9.316;2022-09-01T01:24:44;97860.90000000001;;;16.02;100
17950;BME280;9100;48.700;9.316;2022-09-01T01:25:45;97855.7;;;16.02;100
17950;BME280;9100;48.700;9.316;2022-09-01T01:26:43;97858.3;;;16.02;100
17950;BME280;9100;48.700;9.316;2022-09-01T01:27:37;97859.3;;;16.01;100
17950;BME280;9100;48.700;9.316;2022-09-01T01:27:44;97858.5;;;16;100
17950;BME280;9100;48.700;9.316;2022-09-01T01:28:44;97855.7;;;16.02;100
17950;BME280;9100;48.700;9.316;2022-09-01T01:29:44;97849;;;16.01;100
17950;BME280;9100;48.700;9.316;2022-09-01T01:30:44;97855.7;;;16.02;100
17950;BME280;9100;48.700;9.316;2022-09-01T01:31:44;97859.3;;;16.01;100
17950;BME280;9100;48.700;9.316;2022-09-01T01:32:37;97852.59999999999;;;16;100
17950;BME280;9100;48.700;9.316;2022-09-01T01:32:44;97857.7;;;16;100
17950;BME280;9100;48.700;9.316;2022-09-01T01:33:45;97857.7;;;16;100
17950;BME280;9100;48.700;9.316;2022-09-01T01:34:43;97855.4;;;15.98;100
17950;BME280;9100;48.700;9.316;2022-09-01T01:35:44;97858.90000000001;;;15.97;100
17950;BME280;9100;48.700;9.316;2022-09-01T01:36:43;97848;;;15.95;100
17950;BME280;9100;48.700;9.316;2022-09-01T01:37:37;97854.2;;;15.94;100
17950;BME280;9100;48.700;9.316;2022-09-01T01:37:44;97853.4;;;15.94;100
17950;BME280;9100;48.700;9.316;2022-09-01T01:38:44;97858.6;;;15.94;100
17950;BME280;9100;48.700;9.316;2022-09-01T01:39:43;97850.8;;;15.94;100
17950;BME280;9100;48.700;9.316;2022-09-01T01:40:44;97845.9;;;15.92;100
17950;BME280;9100;48.700;9.316;2022-09-01T01:41:44;97853.8;;;15.91;100
17950;BME280;9100;48.700;9.316;2022-09-01T01:42:37;97853.8;;;15.91;100
17950;BME280;9100;48.700;9.316;2022-09-01T01:42:44;97851.2;;;15.91;100
17950;BME280;9100;48.700;9.316;2022-09-01T01:43:44;97858;;;15.92;100
17950;BME280;9100;48.700;9.316;2022-09-01T01:44:43;97856.2;;;15.92;100
17950;BME280;9100;48.700;9.316;2022-09-01T01:45:43;97856.4;;;15.91;100
17950;BME280;9100;48.700;9.316;2022-09-01T01:46:44;97854.6;;;15.91;100
17950;BME280;9100;48.700;9.316;2022-09-01T01:47:37;97857.4;;;15.9;100
17950;BME280;9100;48.700;9.316;2022-09-01T01:47:44;97853.8;;;15.91;100
17950;BME280;9100;48.700;9.316;2022-09-01T01:48:44;97854.4;;;15.93;100
17950;BME280;9100;48.700;9.316;2022-09-01T01:49:43;97853.59999999999;;;15.92;100
17950;BME280;9100;48.700;9.316;2022-09-01T01:50:44;97857;;;15.93;100
17950;BME280;9100;48.700;9.316;2022-09-01T01:51:44;97859.6;;;15.93;100
17950;BME280;9100;48.700;9.316;2022-09-01T01:52:37;97859;;;15.91;100
17950;BME280;9100;48.700;9.316;2022-09-01T01:52:43;97857;;;15.93;100
17950;BME280;9100;48.700;9.316;2022-09-01T01:53:44;97854.6;;;15.91;100
17950;BME280;9100;48.700;9.316;2022-09-01T01:54:44;97859.79999999999;;;15.91;100
17950;BME280;9100;48.700;9.316;2022-09-01T01:55:44;97861.5;;;15.91;100
17950;BME280;9100;48.700;9.316;2022-09-01T01:56:44;97861;;;15.89;100
17950;BME280;9100;48.700;9.316;2022-09-01T01:57:37;97859.40000000001;;;15.88;100
17950;BME280;9100;48.700;9.316;2022-09-01T01:57:44;97863.59999999999;;;15.89;100
17950;BME280;9100;48.700;9.316;2022-09-01T01:58:44;97861;;;15.89;100
17950;BME280;9100;48.700;9.316;2022-09-01T01:59:44;97857.8;;;15.87;100
17950;BME280;9100;48.700;9.316;2022-09-01T02:00:44;97858;;;15.85;100
17950;BME280;9100;48.700;9.316;2022-09-01T02:01:44;97859.79999999999;;;15.85;100
17950;BME280;9100;48.700;9.316;2022-09-01T02:02:37;97860;;;15.83;100
17950;BME280;9100;48.700;9.316;2022-09-01T02:02:44;97862.59999999999;;;15.83;100
17950;BME280;9100;48.700;9.316;2022-09-01T02:03:44;97861;;;15.82;100
17950;BME280;9100;48.700;9.316;2022-09-01T02:04:44;97860.2;;;15.82;100
17950;BME280;9100;48.700;9.316;2022-09-01T02:05:44;97865.59999999999;;;15.8;100
17950;BME280;9100;48.700;9.316;2022-09-01T02:06:44;97868.2;;;15.8;100
17950;BME280;9100;48.700;9.316;2022-09-01T02:07:37;97865;;;15.78;100
17950;BME280;9100;48.700;9.316;2022-09-01T02:07:44;97855.5;;;15.79;100
17950;BME280;9100;48.700;9.316;2022-09-01T02:08:44;97866.6;;;15.79;100
17950;BME280;9100;48.700;9.316;2022-09-01T02:09:44;97865.8;;;15.79;100
17950;BME280;9100;48.700;9.316;2022-09-01T02:10:44;97862.59999999999;;;15.77;100
17950;BME280;9100;48.700;9.316;2022-09-01T02:11:44;97864.59999999999;;;15.75;100
17950;BME280;9100;48.700;9.316;2022-09-01T02:12:37;97861.5;;;15.73;100
17950;BME280;9100;48.700;9.316;2022-09-01T02:12:44;97864.20000000001;;;15.71;100
17950;BME280;9100;48.700;9.316;2022-09-01T02:13:44;97858.90000000001;;;15.73;100
17950;BME280;9100;48.700;9.316;2022-09-01T02:14:44;97856.3;;;15.73;100
17950;BME280;9100;48.700;9.316;2022-09-01T02:15:45;97857.3;;;15.72;100
17950;BME280;9100;48.700;9.316;2022-09-01T02:16:44;97855.9;;;15.69;100
17950;BME280;9100;48.700;9.316;2022-09-01T02:17:37;97854.5;;;15.67;100
17950;BME280;9100;48.700;9.316;2022-09-01T02:17:44;97860.5;;;15.67;100
17950;BME280;9100;48.700;9.316;2022-09-01T02:18:45;97862.3;;;15.67;100
17950;BME280;9100;48.700;9.316;2022-09-01T02:19:43;97857.3;;;15.65;100
17950;BME280;9100;48.700;9.316;2022-09-01T02:20:44;97856.5;;;15.65;100
17950;BME280;9100;48.700;9.316;2022-09-01T02:21:44;97857.5;;;15.64;100
17950;BME280;9100;48.700;9.316;2022-09-01T02:22:37;97856.8;;;15.63;100
17950;BME280;9100;48.700;9.316;2022-09-01T02:22:44;97861.90000000001;;;15.63;100
17950;BME280;9100;48.700;9.316;2022-09-01T02:23:44;97857.5;;;15.64;100
17950;BME280;9100;48.700;9.316;2022-09-01T02:24:44;97850.8;;;15.63;100
17950;BME280;9100;48.700;9.316;2022-09-01T02:25:44;97850;;;15.62;100
17950;BME280;9100;48.700;9.316;2022-09-01T02:26:44;97854.4;;;15.62;100
17950;BME280;9100;48.700;9.316;2022-09-01T02:27:37;97852.59999999999;;;15.62;100
17950;BME280;9100;48.700;9.316;2022-09-01T02:27:44;97859.5;;;15.62;100
17950;BME280;9100;48.700;9.316;2022-09-01T02:28:44;97845.6;;;15.63;100
17950;BME280;9100;48.700;9.316;2022-09-01T02:29:44;97854;;;15.65;100
17950;BME280;9100;48.700;9.316;2022-09-01T02:30:44;97852.4;;;15.64;100
17950;BME280;9100;48.700;9.316;2022-09-01T02:31:44;97852.4;;;15.64;100
17950;BME280;9100;48.700;9.316;2022-09-01T02:32:37;97850.40000000001;;;15.66;100
17950;BME280;9100;48.700;9.316;2022-09-01T02:32:44;97850.40000000001;;;15.66;100
17950;BME280;9100;48.700;9.316;2022-09-01T02:33:44;97848.40000000001;;;15.68;100
17950;BME280;9100;48.700;9.316;2022-09-01T02:34:43;97849;;;15.7;100
17950;BME280;9100;48.700;9.316;2022-09-01T02:35:44;97840.20000000001;;;15.71;100
17950;BME280;9100;48.700;9.316;2022-09-01T02:36:44;97843.6;;;15.71;100
17950;BME280;9100;48.700;9.316;2022-09-01T02:37:37;97838.4;;;15.71;100
17950;BME280;9100;48.700;9.316;2022-09-01T02:37:44;97836.7;;;15.72;100
17950;BME280;9100;48.700;9.316;2022-09-01T02:38:44;97847.6;;;15.74;100
17950;BME280;9100;48.700;9.316;2022-09-01T02:39:44;97846.5;;;15.75;100
17950;BME280;9100;48.700;9.316;2022-09-01T02:40:44;97844;;;15.75;100
17950;BME280;9100;48.700;9.316;2022-09-01T02:41:44;97841.4;;;15.75;100
17950;BME280;9100;48.700;9.316;2022-09-01T02:42:37;97844.8;;;15.75;100
17950;BME280;9100;48.700;9.316;2022-09-01T02:42:44;97845.6;;;15.76;100
17950;BME280;9100;48.700;9.316;2022-09-01T02:43:44;97836.8;;;15.77;100
17950;BME280;9100;48.700;9.316;2022-09-01T02:44:44;97841;;;15.78;100
17950;BME280;9100;48.700;9.316;2022-09-01T02:45:44;97841;;;15.78;100
17950;BME280;9100;48.700;9.316;2022-09-01T02:46:44;97836.8;;;15.77;100
17950;BME280;9100;48.700;9.316;2022-09-01T02:47:37;97847.2;;;15.77;100
17950;BME280;9100;48.700;9.316;2022-09-01T02:47:44;97844.6;;;15.77;100
17950;BME280;9100;48.700;9.316;2022-09-01T02:48:44;97846.7;;;15.8;100
17950;BME280;9100;48.700;9.316;2022-09-01T02:49:44;97845.1;;;15.79;100
17950;BME280;9100;48.700;9.316;2022-09-01T02:50:44;97845.9;;;15.79;100
17950;BME280;9100;48.700;9.316;2022-09-01T02:51:44;97846.7;;;15.8;100
17950;BME280;9100;48.700;9.316;2022-09-01T02:52:37;97840.8;;;15.79;100
17950;BME280;9100;48.700;9.316;2022-09-01T02:52:44;97843.6;;;15.78;100
17950;BME280;9100;48.700;9.316;2022-09-01T02:53:44;97840;;;15.79;100
17950;BME280;9100;48.700;9.316;2022-09-01T02:54:44;97844.2;;;15.8;100
17950;BME280;9100;48.700;9.316;2022-09-01T02:55:44;97841.6;;;15.8;100
17950;BME280;9100;48.700;9.316;2022-09-01T02:56:44;97843.4;;;15.79;100
17950;BME280;9100;48.700;9.316;2022-09-01T02:57:37;97842.6;;;15.79;100
17950;BME280;9100;48.700;9.316;2022-09-01T02:57:44;97843.6;;;15.78;100
17950;BME280;9100;48.700;9.316;2022-09-01T02:58:44;97840;;;15.79;100
17950;BME280;9100;48.700;9.316;2022-09-01T02:59:44;97843.2;;;15.81;100
17950;BME280;9100;48.700;9.316;2022-09-01T03:00:44;97838;;;15.81;100
17950;BME280;9100;48.700;9.316;2022-09-01T03:01:44;97844.2;;;15.8;100
17950;BME280;9100;48.700;9.316;2022-09-01T03:02:37;97843.4;;;15.79;100
17950;BME280;9100;48.700;9.316;2022-09-01T03:02:44;97841.6;;;15.8;100
17950;BME280;9100;48.700;9.316;2022-09-01T03:03:44;97843.4;;;15.79;100
17950;BME280;9100;48.700;9.316;2022-09-01T03:04:43;97845.1;;;15.79;100
17950;BME280;9100;48.700;9.316;2022-09-01T03:05:44;97840;;;15.79;100
17950;BME280;9100;48.700;9.316;2022-09-01T03:06:44;97839.20000000001;;;15.78;100
17950;BME280;9100;48.700;9.316;2022-09-01T03:07:37;97843;;;15.76;100
17950;BME280;9100;48.700;9.316;2022-09-01T03:07:44;97839.4;;;15.77;100
17950;BME280;9100;48.700;9.316;2022-09-01T03:08:44;97842.8;;;15.77;100
17950;BME280;9100;48.700;9.316;2022-09-01T03:09:44;97843;;;15.76;100
17950;BME280;9100;48.700;9.316;2022-09-01T03:10:44;97840.4;;;15.76;100
17950;BME280;9100;48.700;9.316;2022-09-01T03:11:44;97841.4;;;15.75;100
17950;BME280;9100;48.700;9.316;2022-09-01T03:12:37;97842.4;;;15.74;100
17950;BME280;9100;48.700;9.316;2022-09-01T03:12:44;97846;;;15.73;100
17950;BME280;9100;48.700;9.316;2022-09-01T03:13:44;97845.8;;;15.74;100
17950;BME280;9100;48.700;9.316;2022-09-01T03:14:44;97839.59999999999;;;15.75;100
17950;BME280;9100;48.700;9.316;2022-09-01T03:15:44;97841.4;;;15.75;100
17950;BME280;9100;48.700;9.316;2022-09-01T03:16:44;97848.6;;;15.73;100
17950;BME280;9100;48.700;9.316;2022-09-01T03:17:37;97841;;;15.71;100
17950;BME280;9100;48.700;9.316;2022-09-01T03:17:44;97839.20000000001;;;15.72;100
17950;BME280;9100;48.700;9.316;2022-09-01T03:18:44;97836.1;;;15.7;100
17950;BME280;9100;48.700;9.316;2022-09-01T03:19:43;97840.5;;;15.69;100
17950;BME280;9100;48.700;9.316;2022-09-01T03:20:44;97841.4;;;15.68;100
17950;BME280;9100;48.700;9.316;2022-09-01T03:21:44;97835.7;;;15.66;100
17950;BME280;9100;48.700;9.316;2022-09-01T03:22:37;97839.09999999999;;;15.67;100
17950;BME280;9100;48.700;9.316;2022-09-01T03:22:44;97833.90000000001;;;15.67;100
17950;BME280;9100;48.700;9.316;2022-09-01T03:23:44;97836.5;;;15.67;100
17950;BME280;9100;48.700;9.316;2022-09-01T03:24:44;97844.2;;;15.67;100
17950;BME280;9100;48.700;9.316;2022-09-01T03:25:44;97776;;;15.25;100
17950;BME280;9100;48.700;9.316;2022-09-01T03:26:44;97845.6;;;15.63;100
17950;BME280;9100;48.700;9.316;2022-09-01T03:27:37;97846.6;;;15.62;100
17950;BME280;9100;48.700;9.316;2022-09-01T03:27:44;97850.8;;;15.63;100
17950;BME280;9100;48.700;9.316;2022-09-01T03:28:44;97839.70000000001;;;15.62;100
17950;BME280;9100;48.700;9.316;2022-09-01T03:29:44;97844.8;;;15.62;100
17950;BME280;9100;48.700;9.316;2022-09-01T03:30:45;97844.8;;;15.62;100
17950;BME280;9100;48.700;9.316;2022-09-01T03:31:44;97844.1;;;15.62;100
17950;BME280;9100;48.700;9.316;2022-09-01T03:32:37;97844.1;;;15.62;100
17950;BME280;9100;48.700;9.316;2022-09-01T03:32:44;97845;;;15.61;100
17950;BME280;9100;48.700;9.316;2022-09-01T03:33:44;97850.8;;;15.63;100
17950;BME280;9100;48.700;9.316;2022-09-01T03:34:44;97852.59999999999;;;15.62;100
17950;BME280;9100;48.700;9.316;2022-09-01T03:35:44;97854.4;;;15.62;100
17950;BME280;9100;48.700;9.316;2022-09-01T03:36:44;97857.9;;;15.61;100
17950;BME280;9100;48.700;9.316;2022-09-01T03:37:37;97853;;;15.59;100
17950;BME280;9100;48.700;9.316;2022-09-01T03:37:44;97856.6;;;15.58;100
17950;BME280;9100;48.700;9.316;2022-09-01T03:38:44;97848.8;;;15.58;100
17950;BME280;9100;48.700;9.316;2022-09-01T03:39:44;97851.4;;;15.58;100
17950;BME280;9100;48.700;9.316;2022-09-01T03:40:44;97856.8;;;15.57;100
17950;BME280;9100;48.700;9.316;2022-09-01T03:41:43;97847.5;;;15.56;100
17950;BME280;9100;48.700;9.316;2022-09-01T03:42:37;97853.59999999999;;;15.55;100
17950;BME280;9100;48.700;9.316;2022-09-01T03:42:44;97848.5;;;15.55;100
17950;BME280;9100;48.700;9.316;2022-09-01T03:43:44;97855.2;;;15.56;100
17950;BME280;9100;48.700;9.316;2022-09-01T03:44:44;97852.8;;;15.54;100
17950;BME280;9100;48.700;9.316;2022-09-01T03:45:44;97768.6;;;15.03;100
17950;BME280;9100;48.700;9.316;2022-09-01T03:46:44;97852;;;15.53;100
17950;BME280;9100;48.700;9.316;2022-09-01T03:47:37;97845.3;;;15.52;100
17950;BME280;9100;48.700;9.316;2022-09-01T03:47:44;97850.40000000001;;;15.52;100
17950;BME280;9100;48.700;9.316;2022-09-01T03:48:44;97852.8;;;15.54;100
17950;BME280;9100;48.700;9.316;2022-09-01T03:49:44;97848.90000000001;;;15.51;100
17950;BME280;9100;48.700;9.316;2022-09-01T03:50:44;97848.90000000001;;;15.51;100
17950;BME280;9100;48.700;9.316;2022-09-01T03:51:44;97844.7;;;15.5;100
17950;BME280;9100;48.700;9.316;2022-09-01T03:52:37;97845.7;;;15.49;100
17950;BME280;9100;48.700;9.316;2022-09-01T03:52:44;97846.5;;;15.5;100
17950;BME280;9100;48.700;9.316;2022-09-01T03:53:44;97843.9;;;15.5;100
17950;BME280;9100;48.700;9.316;2022-09-01T03:54:44;97836.3;;;15.48;100
17950;BME280;9100;48.700;9.316;2022-09-01T03:55:44;97844.9;;;15.49;100
17950;BME280;9100;48.700;9.316;2022-09-01T03:56:44;97839.70000000001;;;15.49;100
17950;BME280;9100;48.700;9.316;2022-09-01T03:57:37;97837.40000000001;;;15.47;100
17950;BME280;9100;48.700;9.316;2022-09-01T03:57:44;97838.9;;;15.48;100
17950;BME280;9100;48.700;9.316;2022-09-01T03:58:44;97844.1;;;15.48;100
17950;BME280;9100;48.700;9.316;2022-09-01T03:59:44;97839.70000000001;;;15.49;100
17950;BME280;9100;48.700;9.316;2022-09-01T04:00:45;97837.40000000001;;;15.47;100
17950;BME280;9100;48.700;9.316;2022-09-01T04:01:44;97834.2;;;15.45;100
17950;BME280;9100;48.700;9.316;2022-09-01T04:02:37;97811.1;;;15.26;100
17950;BME280;9100;48.700;9.316;2022-09-01T04:02:44;97837.8;;;15.44;100
17950;BME280;9100;48.700;9.316;2022-09-01T04:03:44;97836.2;;;15.43;100
17950;BME280;9100;48.700;9.316;2022-09-01T04:04:44;97835.2;;;15.44;100
17950;BME280;9100;48.700;9.316;2022-09-01T04:05:44;97839.70000000001;;;15.42;100
17950;BME280;9100;48.700;9.316;2022-09-01T04:06:44;97834.6;;;15.42;100
17950;BME280;9100;48.700;9.316;2022-09-01T04:07:37;97836.6;;;15.4;100
17950;BME280;9100;48.700;9.316;2022-09-01T04:07:44;97835.6;;;15.41;100
17950;BME280;9100;48.700;9.316;2022-09-01T04:08:44;97833;;;15.41;100
17950;BME280;9100;48.700;9.316;2022-09-01T04:09:44;97838.09999999999;;;15.41;100
17950;BME280;9100;48.700;9.316;2022-09-01T04:10:45;97840.7;;;15.41;100
17950;BME280;9100;48.700;9.316;2022-09-01T04:11:44;97837.40000000001;;;15.41;100
17950;BME280;9100;48.700;9.316;2022-09-01T04:12:37;97785;;;15.09;100
17950;BME280;9100;48.700;9.316;2022-09-01T04:12:44;97839.9;;;15.41;100
17950;BME280;9100;48.700;9.316;2022-09-01T04:13:44;97834.6;;;15.42;100
17950;BME280;9100;48.700;9.316;2022-09-01T04:14:44;97837;;;15.44;100
17950;BME280;9100;48.700;9.316;2022-09-01T04:15:44;97841.3;;;15.43;100
17950;BME280;9100;48.700;9.316;2022-09-01T04:16:44;97842.1;;;15.44;100
17950;BME280;9100;48.700;9.316;2022-09-01T04:17:37;97839.70000000001;;;15.42;100
17950;BME280;9100;48.700;9.316;2022-09-01T04:17:44;97835.40000000001;;;15.43;100
17950;BME280;9100;48.700;9.316;2022-09-01T04:18:44;97843.3;;;15.41;100
17950;BME280;9100;48.700;9.316;2022-09-01T04:19:44;97845.9;;;15.41;100
17950;BME280;9100;48.700;9.316;2022-09-01T04:20:44;97844.3;;;15.4;100
17950;BME280;9100;48.700;9.316;2022-09-01T04:21:44;97838.59999999999;;;15.38;100
17950;BME280;9100;48.700;9.316;2022-09-01T04:22:37;97840.3;;;15.38;100
17950;BME280;9100;48.700;9.316;2022-09-01T04:22:44;97834.40000000001;;;15.37;100
17950;BME280;9100;48.700;9.316;2022-09-01T04:23:44;97841.09999999999;;;15.38;100
17950;BME280;9100;48.700;9.316;2022-09-01T04:24:44;97838.59999999999;;;15.38;100
17950;BME280;9100;48.700;9.316;2022-09-01T04:25:44;97834.40000000001;;;15.37;100
17950;BME280;9100;48.700;9.316;2022-09-01T04:26:44;97840.20000000001;;;15.39;100
17950;BME280;9100;48.700;9.316;2022-09-01T04:27:37;97839.5;;;15.37;100
17950;BME280;9100;48.700;9.316;2022-09-01T04:27:44;97838.59999999999;;;15.38;100
17950;BME280;9100;48.700;9.316;2022-09-01T04:28:44;97836.6;;;15.4;100
17950;BME280;9100;48.700;9.316;2022-09-01T04:29:44;97843.3;;;15.41;100
17950;BME280;9100;48.700;9.316;2022-09-01T04:30:44;97844.3;;;15.4;100
17950;BME280;9100;48.700;9.316;2022-09-01T04:31:44;97841;;;15.4;100
17950;BME280;9100;48.700;9.316;2022-09-01T04:32:37;97848.7;;;15.4;100
17950;BME280;9100;48.700;9.316;2022-09-01T04:32:44;97846.90000000001;;;15.4;100
17950;BME280;9100;48.700;9.316;2022-09-01T04:33:44;97844.3;;;15.4;100